createdAt,value
2023-04-02T00:01:50.493Z,1.10
2023-04-02T00:04:38.098Z,1.20
2023-04-02T00:07:31.155Z,1.48
2023-04-02T00:10:37.944Z,1.08
2023-04-02T00:13:41.162Z,0.80
2023-04-02T00:16:27.411Z,0.80
2023-04-02T00:19:23.380Z,0.93
2023-04-02T00:22:16.487Z,1.10
2023-04-02T00:25:12.253Z,1.00
2023-04-02T00:27:57.223Z,0.75
2023-04-02T00:31:02.429Z,0.77
2023-04-02T00:33:49.363Z,0.85
2023-04-02T00:36:35.279Z,0.90
2023-04-02T00:39:27.250Z,0.80
2023-04-02T00:42:13.016Z,0.95
2023-04-02T00:44:59.005Z,1.10
2023-04-02T00:47:44.531Z,1.00
2023-04-02T00:50:41.450Z,1.20
2023-04-02T00:53:31.485Z,1.30
2023-04-02T00:59:32.717Z,1.40
2023-04-02T01:02:18.542Z,1.10
2023-04-02T01:05:15.814Z,1.27
2023-04-02T01:08:17.627Z,1.50
2023-04-02T01:11:05.858Z,1.08
2023-04-02T01:14:00.314Z,1.27
2023-04-02T01:17:26.434Z,1.27
2023-04-02T01:20:26.723Z,1.15
2023-04-02T01:23:18.219Z,1.00
2023-04-02T01:26:27.972Z,0.85
2023-04-02T01:29:16.612Z,1.00
2023-04-02T01:32:06.658Z,1.02
2023-04-02T01:34:52.985Z,1.40
2023-04-02T01:37:56.776Z,1.35
2023-04-02T01:41:05.857Z,2.03
2023-04-02T01:43:58.346Z,2.53
2023-04-02T01:46:44.831Z,2.40
2023-04-02T01:49:30.522Z,2.42
2023-04-02T01:52:34.434Z,2.60
2023-04-02T01:55:29.409Z,2.45
2023-04-02T01:58:19.527Z,2.72
2023-04-02T02:01:19.207Z,2.97
2023-04-02T02:04:04.991Z,3.75
2023-04-02T02:06:50.418Z,3.20
2023-04-02T02:09:36.441Z,3.42
2023-04-02T02:12:22.145Z,3.30
2023-04-02T02:15:16.011Z,3.28
2023-04-02T02:18:05.371Z,3.80
2023-04-02T02:20:52.194Z,2.95
2023-04-02T02:23:37.445Z,3.15
2023-04-02T02:26:27.216Z,3.15
2023-04-02T02:32:02.830Z,3.47
2023-04-02T02:35:12.759Z,3.45
2023-04-02T02:40:56.903Z,3.78
2023-04-02T02:43:49.146Z,4.10
2023-04-02T02:46:37.757Z,3.70
2023-04-02T02:49:29.560Z,4.05
2023-04-02T02:52:18.791Z,3.92
2023-04-02T02:55:08.826Z,4.43
2023-04-02T02:58:01.696Z,4.25
2023-04-02T03:00:47.878Z,3.53
2023-04-02T03:03:34.506Z,3.00
2023-04-02T03:06:20.762Z,4.40
2023-04-02T03:10:06.787Z,4.13
2023-04-02T03:13:00.762Z,4.05
2023-04-02T03:16:06.742Z,4.25
2023-04-02T03:19:34.779Z,4.60
2023-04-02T03:22:32.220Z,4.10
2023-04-02T03:25:17.244Z,4.30
2023-04-02T03:28:07.596Z,5.20
2023-04-02T03:31:16.711Z,4.68
2023-04-02T03:34:11.805Z,5.13
2023-04-02T03:36:59.057Z,4.50
2023-04-02T03:40:10.102Z,5.40
2023-04-02T03:43:24.984Z,4.75
2023-04-02T03:46:18.448Z,5.13
2023-04-02T03:49:09.852Z,4.88
2023-04-02T03:52:00.789Z,5.88
2023-04-02T03:54:54.131Z,5.32
2023-04-02T03:57:46.810Z,5.30
2023-04-02T04:00:53.857Z,4.40
2023-04-02T04:03:46.648Z,4.50
2023-04-02T04:06:36.759Z,4.80
2023-04-02T04:12:24.302Z,4.50
2023-04-02T04:15:41.781Z,4.30
2023-04-02T04:18:34.973Z,5.00
2023-04-02T04:21:37.573Z,4.88
2023-04-02T04:24:25.250Z,4.95
2023-04-02T04:27:20.518Z,5.20
2023-04-02T04:30:27.249Z,5.65
2023-04-02T04:33:26.040Z,5.35
2023-04-02T04:36:32.069Z,5.68
2023-04-02T04:39:23.963Z,6.32
2023-04-02T04:42:18.047Z,6.22
2023-04-02T04:45:17.016Z,5.75
2023-04-02T04:48:15.307Z,6.60
2023-04-02T04:51:04.084Z,5.50
2023-04-02T04:53:52.722Z,5.63
2023-04-02T04:56:37.997Z,5.13
2023-04-02T04:59:42.821Z,5.15
2023-04-02T05:02:33.978Z,4.68
2023-04-02T05:05:29.743Z,4.93
2023-04-02T05:08:21.014Z,4.95
2023-04-02T05:11:13.293Z,4.07
2023-04-02T05:14:06.854Z,5.35
2023-04-02T05:17:07.549Z,5.50
2023-04-02T05:20:07.888Z,4.65
2023-04-02T05:23:18.320Z,4.65
2023-04-02T05:26:11.404Z,4.35
2023-04-02T05:29:14.546Z,5.15
2023-04-02T05:32:08.832Z,4.80
2023-04-02T05:34:56.985Z,3.90
2023-04-02T05:37:42.537Z,3.72
2023-04-02T05:40:33.466Z,4.05
2023-04-02T05:43:23.269Z,3.38
2023-04-02T05:49:00.439Z,3.40
2023-04-02T05:51:50.728Z,3.47
2023-04-02T05:54:47.713Z,2.97
2023-04-02T05:57:43.870Z,3.72
2023-04-02T06:00:37.770Z,3.53
2023-04-02T06:03:32.339Z,3.47
2023-04-02T06:06:27.154Z,3.17
2023-04-02T06:09:23.876Z,3.35
2023-04-02T06:12:18.201Z,3.65
2023-04-02T06:15:06.522Z,3.10
2023-04-02T06:18:21.330Z,3.10
2023-04-02T06:21:06.664Z,2.83
2023-04-02T06:24:04.458Z,3.25
2023-04-02T06:26:58.583Z,2.75
2023-04-02T06:29:45.591Z,2.47
2023-04-02T06:32:31.278Z,2.75
2023-04-02T06:35:17.020Z,2.22
2023-04-02T06:38:05.790Z,2.95
2023-04-02T06:41:00.889Z,2.20
2023-04-02T06:43:51.312Z,2.30
2023-04-02T06:46:43.340Z,2.50
2023-04-02T06:49:51.303Z,2.03
2023-04-02T06:52:44.353Z,1.90
2023-04-02T06:55:50.594Z,2.58
2023-04-02T06:58:35.876Z,2.45
2023-04-02T07:01:25.725Z,2.40
2023-04-02T07:04:11.785Z,2.13
2023-04-02T07:06:57.092Z,2.45
2023-04-02T07:09:42.430Z,2.50
2023-04-02T07:12:27.683Z,2.83
2023-04-02T07:15:16.954Z,2.40
2023-04-02T07:18:02.717Z,2.63
2023-04-02T07:20:48.184Z,1.80
2023-04-02T07:23:33.438Z,1.75
2023-04-02T07:26:23.241Z,2.22
2023-04-02T07:29:14.097Z,2.38
2023-04-02T07:31:59.039Z,2.00
2023-04-02T07:34:43.936Z,2.35
2023-04-02T07:37:29.406Z,2.00
2023-04-02T07:40:21.962Z,2.20
2023-04-02T07:43:07.430Z,2.13
2023-04-02T07:45:52.246Z,2.03
2023-04-02T07:48:37.338Z,2.40
2023-04-02T07:51:25.020Z,2.00
2023-04-02T07:54:11.136Z,2.10
2023-04-02T07:56:56.660Z,1.85
2023-04-02T07:59:41.570Z,1.90
2023-04-02T08:02:26.681Z,1.88
2023-04-02T08:05:12.051Z,2.00
2023-04-02T08:07:57.212Z,2.08
2023-04-02T08:10:42.293Z,2.10
2023-04-02T08:13:27.239Z,2.35
2023-04-02T08:16:12.478Z,2.30
2023-04-02T08:18:57.452Z,2.08
2023-04-02T08:21:43.001Z,2.03
2023-04-02T08:24:27.993Z,2.17
2023-04-02T08:27:14.996Z,2.70
2023-04-02T08:30:00.779Z,2.60
2023-04-02T08:32:45.896Z,2.10
2023-04-02T08:35:30.756Z,1.83
2023-04-02T08:38:17.615Z,2.40
2023-04-02T08:41:04.787Z,2.53
2023-04-02T08:44:07.055Z,3.72
2023-04-02T08:47:07.387Z,1.75
2023-04-02T08:50:00.963Z,1.98
2023-04-02T08:52:46.624Z,2.20
2023-04-02T08:56:09.914Z,2.30
2023-04-02T08:58:57.841Z,1.73
2023-04-02T09:02:00.196Z,1.70
2023-04-02T09:04:45.443Z,2.33
2023-04-02T09:07:33.003Z,2.53
2023-04-02T09:10:19.180Z,2.45
2023-04-02T09:13:13.984Z,2.53
2023-04-02T09:16:07.860Z,2.03
2023-04-02T09:18:54.013Z,2.10
2023-04-02T09:21:46.924Z,2.00
2023-04-02T09:24:32.124Z,2.72
2023-04-02T09:27:22.971Z,2.40
2023-04-02T09:30:26.789Z,2.00
2023-04-02T09:33:12.937Z,2.28
2023-04-02T09:35:58.302Z,2.13
2023-04-02T09:38:58.096Z,2.60
2023-04-02T09:41:43.815Z,2.40
2023-04-02T09:44:31.840Z,2.53
2023-04-02T09:47:25.712Z,2.97
2023-04-02T09:50:32.464Z,1.88
2023-04-02T09:53:31.245Z,2.97
2023-04-02T09:56:25.620Z,2.90
2023-04-02T09:59:13.605Z,1.83
2023-04-02T10:02:03.665Z,2.65
2023-04-02T10:04:50.002Z,2.30
2023-04-02T10:07:44.551Z,2.17
2023-04-02T10:10:36.380Z,2.78
2023-04-02T10:13:33.860Z,2.20
2023-04-02T10:16:33.523Z,2.15
2023-04-02T10:19:41.866Z,2.58
2023-04-02T10:22:30.077Z,2.58
2023-04-02T10:25:16.951Z,2.03
2023-04-02T10:28:55.640Z,2.22
2023-04-02T10:32:04.478Z,2.30
2023-04-02T10:34:55.738Z,2.75
2023-04-02T10:37:47.117Z,2.85
2023-04-02T10:40:39.879Z,2.20
2023-04-02T10:43:30.899Z,2.05
2023-04-02T10:46:53.621Z,2.42
2023-04-02T10:49:50.763Z,2.95
2023-04-02T10:52:44.184Z,3.10
2023-04-02T10:55:35.671Z,2.13
2023-04-02T10:58:26.927Z,2.20
2023-04-02T11:01:18.062Z,2.00
2023-04-02T11:04:08.610Z,2.25
2023-04-02T11:07:13.245Z,2.70
2023-04-02T11:10:00.851Z,1.73
2023-04-02T11:12:52.358Z,2.13
2023-04-02T11:15:38.251Z,2.38
2023-04-02T11:18:27.672Z,2.50
2023-04-02T11:21:24.917Z,2.05
2023-04-02T11:24:34.352Z,2.05
2023-04-02T11:27:39.614Z,1.77
2023-04-02T11:30:27.095Z,2.20
2023-04-02T11:33:44.618Z,2.10
2023-04-02T11:36:50.076Z,2.13
2023-04-02T11:39:55.010Z,2.25
2023-04-02T11:42:45.666Z,2.58
2023-04-02T11:45:31.170Z,2.00
2023-04-02T11:48:17.507Z,1.83
2023-04-02T11:51:21.308Z,2.08
2023-04-02T11:54:24.024Z,1.60
2023-04-02T11:57:30.703Z,1.80
2023-04-02T12:00:47.369Z,2.00
2023-04-02T12:04:03.167Z,1.38
2023-04-02T12:07:10.785Z,2.20
2023-04-02T12:10:03.107Z,1.95
2023-04-02T12:12:49.290Z,1.88
2023-04-02T12:15:45.193Z,2.20
2023-04-02T12:18:30.494Z,1.83
2023-04-02T12:21:21.219Z,1.70
2023-04-02T12:24:14.402Z,1.88
2023-04-02T12:27:15.289Z,2.25
2023-04-02T12:30:18.698Z,1.92
2023-04-02T12:33:17.192Z,2.00
2023-04-02T12:36:09.923Z,2.03
2023-04-02T12:38:58.532Z,1.95
2023-04-02T12:41:43.675Z,1.90
2023-04-02T12:44:31.059Z,1.88
2023-04-02T12:47:16.118Z,2.20
2023-04-02T12:50:02.167Z,1.73
2023-04-02T12:52:50.911Z,1.90
2023-04-02T12:55:36.666Z,1.95
2023-04-02T12:58:36.797Z,1.88
2023-04-02T13:01:31.813Z,1.80
2023-04-02T13:04:17.906Z,1.70
2023-04-02T13:07:03.004Z,1.80
2023-04-02T13:09:50.994Z,1.90
2023-04-02T13:12:40.712Z,1.60
2023-04-02T13:15:32.545Z,1.75
2023-04-02T13:18:23.132Z,1.70
2023-04-02T13:21:14.467Z,1.90
2023-04-02T13:23:59.506Z,1.77
2023-04-02T13:26:44.518Z,2.08
2023-04-02T13:29:34.854Z,1.90
2023-04-02T13:32:19.995Z,2.30
2023-04-02T13:35:05.403Z,1.90
2023-04-02T13:37:50.810Z,1.92
2023-04-02T13:40:37.560Z,1.80
2023-04-02T13:43:23.158Z,2.28
2023-04-02T13:46:08.590Z,1.48
2023-04-02T13:48:55.574Z,1.83
2023-04-02T13:51:47.630Z,1.63
2023-04-02T13:54:53.053Z,1.88
2023-04-02T13:57:38.189Z,1.80
2023-04-02T14:00:24.009Z,2.17
2023-04-02T14:03:22.042Z,2.00
2023-04-02T14:06:15.241Z,2.05
2023-04-02T14:09:06.603Z,1.60
2023-04-02T14:12:25.022Z,1.60
2023-04-02T14:15:27.903Z,1.70
2023-04-02T14:18:29.947Z,1.63
2023-04-02T14:21:31.341Z,1.75
2023-04-02T14:24:20.792Z,2.13
2023-04-02T14:27:44.743Z,1.65
2023-04-02T14:30:51.654Z,2.35
2023-04-02T14:34:06.711Z,1.78
2023-04-02T14:36:57.719Z,2.50
2023-04-02T14:40:01.508Z,1.80
2023-04-02T14:43:03.641Z,2.08
2023-04-02T14:46:03.227Z,1.88
2023-04-02T14:48:54.468Z,2.13
2023-04-02T14:51:43.876Z,2.13
2023-04-02T14:54:37.737Z,1.92
2023-04-02T14:57:37.781Z,1.88
2023-04-02T15:00:32.947Z,2.15
2023-04-02T15:03:24.333Z,2.22
2023-04-02T15:06:20.392Z,2.28
2023-04-02T15:09:20.676Z,2.00
2023-04-02T15:12:28.950Z,2.33
2023-04-02T15:15:40.954Z,2.22
2023-04-02T15:18:26.853Z,2.55
2023-04-02T15:21:29.238Z,2.47
2023-04-02T15:24:30.434Z,2.35
2023-04-02T15:27:31.559Z,2.47
2023-04-02T15:30:44.136Z,2.55
2023-04-02T15:33:43.862Z,2.50
2023-04-02T15:36:35.368Z,2.50
2023-04-02T15:39:35.015Z,2.63
2023-04-02T15:45:10.971Z,2.50
2023-04-02T15:48:11.342Z,2.25
2023-04-02T15:51:49.978Z,2.50
2023-04-02T15:54:49.638Z,2.28
2023-04-02T15:57:41.079Z,2.47
2023-04-02T16:00:42.664Z,1.83
2023-04-02T16:03:46.238Z,2.22
2023-04-02T16:06:55.133Z,2.10
2023-04-02T16:10:11.591Z,2.28
2023-04-02T16:12:56.924Z,1.77
2023-04-02T16:15:53.587Z,2.25
2023-04-02T16:18:53.485Z,1.95
2023-04-02T16:21:49.055Z,2.00
2023-04-02T16:24:34.386Z,1.95
2023-04-02T16:27:43.194Z,2.15
2023-04-02T16:30:54.302Z,2.08
2023-04-02T16:33:53.931Z,2.40
2023-04-02T16:39:36.777Z,2.58
2023-04-02T16:42:31.214Z,2.50
2023-04-02T16:45:30.958Z,2.92
2023-04-02T16:48:34.703Z,2.17
2023-04-02T16:51:34.088Z,2.22
2023-04-02T16:54:28.302Z,3.13
2023-04-02T16:57:54.881Z,2.60
2023-04-02T17:01:12.838Z,2.67
2023-04-02T17:04:16.343Z,2.78
2023-04-02T17:07:12.892Z,2.47
2023-04-02T17:10:30.568Z,2.58
2023-04-02T17:13:44.253Z,2.55
2023-04-02T17:16:51.083Z,2.55
2023-04-02T17:19:36.379Z,2.60
2023-04-02T17:22:22.894Z,2.50
2023-04-02T17:25:17.900Z,2.38
2023-04-02T17:28:09.057Z,2.60
2023-04-02T17:30:59.838Z,2.50
2023-04-02T17:33:44.962Z,2.55
2023-04-02T17:36:44.357Z,2.53
2023-04-02T17:39:41.867Z,2.40
2023-04-02T17:42:50.372Z,2.45
2023-04-02T17:45:50.294Z,1.95
2023-04-02T17:51:44.755Z,1.90
2023-04-02T17:54:50.340Z,2.38
2023-04-02T17:57:41.575Z,2.80
2023-04-02T18:01:03.407Z,3.00
2023-04-02T18:03:53.874Z,2.55
2023-04-02T18:06:57.975Z,2.35
2023-04-02T18:09:50.273Z,2.40
2023-04-02T18:12:51.137Z,2.15
2023-04-02T18:15:59.997Z,2.70
2023-04-02T18:19:05.918Z,2.20
2023-04-02T18:22:01.550Z,2.08
2023-04-02T18:24:49.630Z,2.40
2023-04-02T18:28:24.179Z,2.00
2023-04-02T18:31:14.945Z,2.22
2023-04-02T18:34:09.853Z,2.05
2023-04-02T18:37:23.251Z,2.22
2023-04-02T18:40:22.130Z,2.17
2023-04-02T18:43:26.362Z,1.55
2023-04-02T18:46:30.985Z,1.83
2023-04-02T18:49:19.434Z,2.55
2023-04-02T18:52:12.619Z,2.47
2023-04-02T18:55:15.224Z,1.80
2023-04-02T18:58:05.340Z,3.03
2023-04-02T19:00:51.204Z,2.13
2023-04-02T19:03:53.127Z,1.92
2023-04-02T19:06:44.138Z,2.55
2023-04-02T19:09:36.506Z,2.15
2023-04-02T19:12:23.624Z,2.35
2023-04-02T19:15:20.288Z,1.80
2023-04-02T19:18:25.797Z,2.00
2023-04-02T19:21:23.127Z,2.38
2023-04-02T19:24:31.540Z,2.22
2023-04-02T19:27:29.131Z,2.95
2023-04-02T19:31:00.345Z,3.60
2023-04-02T19:34:08.606Z,2.53
2023-04-02T19:37:02.003Z,2.20
2023-04-02T19:40:03.253Z,2.85
2023-04-02T19:42:51.227Z,2.30
2023-04-02T19:45:39.716Z,2.25
2023-04-02T19:48:30.723Z,3.47
2023-04-02T19:51:16.182Z,2.83
2023-04-02T19:54:01.495Z,2.70
2023-04-02T19:56:46.768Z,2.85
2023-04-02T19:59:32.374Z,2.15
2023-04-02T20:02:17.414Z,3.03
2023-04-02T20:05:02.719Z,2.95
2023-04-02T20:07:48.014Z,2.22
2023-04-02T20:10:33.022Z,2.00
2023-04-02T20:13:18.228Z,2.20
2023-04-02T20:16:05.724Z,2.10
2023-04-02T20:18:50.947Z,2.22
2023-04-02T20:21:38.521Z,2.38
2023-04-02T20:24:24.017Z,2.60
2023-04-02T20:27:09.314Z,2.28
2023-04-02T20:29:54.662Z,2.60
2023-04-02T20:32:40.562Z,2.03
2023-04-02T20:35:26.608Z,2.30
2023-04-02T20:38:11.780Z,1.92
2023-04-02T20:40:57.421Z,2.10
2023-04-02T20:43:42.757Z,2.40
2023-04-02T20:46:27.942Z,2.38
2023-04-02T20:49:12.788Z,2.42
2023-04-02T20:51:57.740Z,2.10
2023-04-02T20:54:43.113Z,1.65
2023-04-02T20:57:31.500Z,2.58
2023-04-02T21:00:18.548Z,3.25
2023-04-02T21:03:04.201Z,2.72
2023-04-02T21:05:49.315Z,2.08
2023-04-02T21:08:35.182Z,2.28
2023-04-02T21:11:22.382Z,3.05
2023-04-02T21:14:07.868Z,2.17
2023-04-02T21:16:52.993Z,2.28
2023-04-02T21:19:38.450Z,2.22
2023-04-02T21:22:23.990Z,2.53
2023-04-02T21:25:09.782Z,2.40
2023-04-02T21:27:54.821Z,3.13
2023-04-02T21:30:39.994Z,3.17
2023-04-02T21:33:24.874Z,2.40
2023-04-02T21:36:13.204Z,2.20
2023-04-02T21:39:01.407Z,2.40
2023-04-02T21:41:50.119Z,2.00
2023-04-02T21:44:35.272Z,2.05
2023-04-02T21:47:20.515Z,2.13
2023-04-02T21:50:06.109Z,1.95
2023-04-02T21:52:51.076Z,1.95
2023-04-02T21:55:36.348Z,1.83
2023-04-02T21:58:21.244Z,1.73
2023-04-02T22:01:09.092Z,2.08
2023-04-02T22:04:01.739Z,1.80
2023-04-02T22:06:47.799Z,1.88
2023-04-02T22:09:33.042Z,2.67
2023-04-02T22:12:18.166Z,1.52
2023-04-02T22:15:03.393Z,1.30
2023-04-02T22:17:48.745Z,1.75
2023-04-02T22:20:34.208Z,2.13
2023-04-02T22:23:20.174Z,1.27
2023-04-02T22:26:07.127Z,1.58
2023-04-02T22:28:52.767Z,1.83
2023-04-02T22:31:38.336Z,1.50
2023-04-02T22:34:23.569Z,1.50
2023-04-02T22:37:08.958Z,1.83
2023-04-02T22:39:54.183Z,1.95
2023-04-02T22:42:39.317Z,1.70
2023-04-02T22:45:24.572Z,1.35
2023-04-02T22:48:09.432Z,1.50
2023-04-02T22:50:54.514Z,1.48
2023-04-02T22:53:40.739Z,1.23
2023-04-02T22:56:29.679Z,1.52
2023-04-02T22:59:14.916Z,1.42
2023-04-02T23:01:59.980Z,1.30
2023-04-02T23:04:45.275Z,1.58
2023-04-02T23:07:31.279Z,1.40
2023-04-02T23:10:16.641Z,1.58
2023-04-02T23:13:01.794Z,1.60
2023-04-02T23:15:46.641Z,1.20
2023-04-02T23:18:33.019Z,1.60
2023-04-02T23:21:19.715Z,1.58
2023-04-02T23:24:04.764Z,1.55
2023-04-02T23:26:49.997Z,1.27
2023-04-02T23:29:35.258Z,1.58
2023-04-02T23:32:20.916Z,1.52
2023-04-02T23:35:06.605Z,1.77
2023-04-02T23:37:51.497Z,1.30
2023-04-02T23:40:37.055Z,1.42
2023-04-02T23:43:22.653Z,1.13
2023-04-02T23:46:07.926Z,1.25
2023-04-02T23:48:53.797Z,1.40
2023-04-02T23:51:39.259Z,1.33
2023-04-02T23:54:24.535Z,1.83
2023-04-02T23:57:09.870Z,1.92
2023-04-02T23:59:55.516Z,1.50
